^^
Station Historical Data
Daily Summary for March 2, 2017 Units:  Both    English   Metric
« Previous Day
Next Day »
Daily Weekly Monthly Yearly Custom
  High: Low: Average:
Temperature: 73.0 °F /  22.8 °C 60.8 °F /  16 °C 66.2 °F /  19 °C
Dew Point: 62.8 °F /  17.1 °C 58.1 °F /  14.5 °C 61 °F /  16.1 °C
Humidity: 95% 70% 84%
Wind Speed: 10.1mph /  16.3km/h - 1mph /  1.6km/h
Wind Gust: 13.0mph /  20.9km/h - -
Wind- - ESE
Pressure: 29.81 in /  1009.4 hPa 29.75 in /  1007.3 hPa -
Precipitation: 1.28 in /  32.51 mm    
Historical Graphs
 
 
Tabular Data for March 2, 2017
Time Temperature Dew Point Pressure Wind Wind Speed Wind Gust Humidity Rainfall Rate (Hourly) solar Conditions
00:04 70.2 °F /  21.2 °C 61.9 °F /  16.6 °C 29.79in /  1008.7hPa ENE 0.9mph /  1.4km/h 1.0mph /  1.6km/h 75% 0.00in /  0mm 0.0 W/m2
00:10 70.2 °F /  21.2 °C 61.5 °F /  16.4 °C 29.79in /  1008.7hPa Calm   1.0mph /  1.6km/h 74% 0.00in /  0mm 0.0 W/m2
00:16 70.2 °F /  21.2 °C 61.5 °F /  16.4 °C 29.79in /  1008.7hPa Calm     74% 0.00in /  0mm 0.0 W/m2
00:22 70.2 °F /  21.2 °C 61.9 °F /  16.6 °C 29.79in /  1008.7hPa Calm     75% 0.00in /  0mm 0.0 W/m2
00:28 70.0 °F /  21.1 °C 61.7 °F /  16.5 °C 29.79in /  1008.7hPa ENE 0.9mph /  1.4km/h 1.0mph /  1.6km/h 75% 0.00in /  0mm 0.0 W/m2
00:34 70.0 °F /  21.1 °C 62.1 °F /  16.7 °C 29.79in /  1008.7hPa Calm   2.0mph /  3.2km/h 76% 0.00in /  0mm 0.0 W/m2
00:40 70.0 °F /  21.1 °C 62.1 °F /  16.7 °C 29.78in /  1008.4hPa East 0.9mph /  1.4km/h 1.0mph /  1.6km/h 76% 0.00in /  0mm 0.0 W/m2
00:46 69.8 °F /  21 °C 61.9 °F /  16.6 °C 29.78in /  1008.4hPa Calm   2.0mph /  3.2km/h 76% 0.00in /  0mm 0.0 W/m2
00:52 69.6 °F /  20.9 °C 61.7 °F /  16.5 °C 29.78in /  1008.4hPa Calm     76% 0.00in /  0mm 0.0 W/m2
00:58 69.6 °F /  20.9 °C 61.7 °F /  16.5 °C 29.78in /  1008.4hPa Calm     76% 0.00in /  0mm 0.0 W/m2
01:04 69.4 °F /  20.8 °C 61.5 °F /  16.4 °C 29.78in /  1008.4hPa Calm   1.0mph /  1.6km/h 76% 0.00in /  0mm 0.0 W/m2
01:10 69.4 °F /  20.8 °C 61.5 °F /  16.4 °C 29.78in /  1008.4hPa Calm     76% 0.00in /  0mm 0.0 W/m2
01:17 69.3 °F /  20.7 °C 61.7 °F /  16.5 °C 29.78in /  1008.4hPa Calm     77% 0.00in /  0mm 0.0 W/m2
01:23 69.1 °F /  20.6 °C 61.5 °F /  16.4 °C 29.78in /  1008.4hPa Calm   1.0mph /  1.6km/h 77% 0.00in /  0mm 0.0 W/m2
01:29 68.7 °F /  20.4 °C 61.2 °F /  16.2 °C 29.78in /  1008.4hPa Calm   3.0mph /  4.8km/h 77% 0.00in /  0mm 0.0 W/m2
01:35 68.5 °F /  20.3 °C 61.0 °F /  16.1 °C 29.78in /  1008.4hPa Calm   2.0mph /  3.2km/h 77% 0.00in /  0mm 0.0 W/m2
01:41 68.4 °F /  20.2 °C 60.8 °F /  16 °C 29.77in /  1008hPa Calm   3.0mph /  4.8km/h 77% 0.00in /  0mm 0.0 W/m2
01:47 68.4 °F /  20.2 °C 61.2 °F /  16.2 °C 29.77in /  1008hPa Calm   2.0mph /  3.2km/h 78% 0.00in /  0mm 0.0 W/m2
01:53 68.2 °F /  20.1 °C 61.0 °F /  16.1 °C 29.76in /  1007.7hPa Calm     78% 0.00in /  0mm 0.0 W/m2
02:06 68.0 °F /  20 °C 61.2 °F /  16.2 °C 29.77in /  1008hPa Calm   4.0mph /  6.4km/h 79% 0.00in /  0mm 0.0 W/m2
02:12 68.0 °F /  20 °C 61.2 °F /  16.2 °C 29.77in /  1008hPa East 2.9mph /  4.7km/h 6.0mph /  9.7km/h 79% 0.00in /  0mm 0.0 W/m2
02:18 67.8 °F /  19.9 °C 61.0 °F /  16.1 °C 29.77in /  1008hPa ENE 0.9mph /  1.4km/h 2.0mph /  3.2km/h 79% 0.00in /  0mm 0.0 W/m2
02:24 68.0 °F /  20 °C 61.2 °F /  16.2 °C 29.77in /  1008hPa Calm   2.0mph /  3.2km/h 79% 0.00in /  0mm 0.0 W/m2
02:30 68.0 °F /  20 °C 61.2 °F /  16.2 °C 29.77in /  1008hPa Calm   1.0mph /  1.6km/h 79% 0.00in /  0mm 0.0 W/m2
02:36 68.2 °F /  20.1 °C 61.3 °F /  16.3 °C 29.77in /  1008hPa Calm     79% 0.00in /  0mm 0.0 W/m2
02:42 68.2 °F /  20.1 °C 61.3 °F /  16.3 °C 29.77in /  1008hPa ENE 0.9mph /  1.4km/h 2.0mph /  3.2km/h 79% 0.00in /  0mm 0.0 W/m2
02:49 68.0 °F /  20 °C 61.2 °F /  16.2 °C 29.77in /  1008hPa Calm     79% 0.00in /  0mm 0.0 W/m2
02:55 68.0 °F /  20 °C 61.2 °F /  16.2 °C 29.76in /  1007.7hPa Calm     79% 0.00in /  0mm 0.0 W/m2
03:01 68.0 °F /  20 °C 61.5 °F /  16.4 °C 29.76in /  1007.7hPa Calm   1.0mph /  1.6km/h 80% 0.00in /  0mm 0.0 W/m2
03:07 68.0 °F /  20 °C 61.5 °F /  16.4 °C 29.76in /  1007.7hPa Calm     80% 0.00in /  0mm 0.0 W/m2
03:13 68.0 °F /  20 °C 61.2 °F /  16.2 °C 29.75in /  1007.3hPa Calm     79% 0.00in /  0mm 0.0 W/m2
03:19 68.2 °F /  20.1 °C 61.7 °F /  16.5 °C 29.76in /  1007.7hPa Calm   1.0mph /  1.6km/h 80% 0.00in /  0mm 0.0 W/m2
03:25 68.2 °F /  20.1 °C 61.7 °F /  16.5 °C 29.76in /  1007.7hPa Calm     80% 0.00in /  0mm 0.0 W/m2
03:31 68.0 °F /  20 °C 61.5 °F /  16.4 °C 29.75in /  1007.3hPa Calm     80% 0.00in /  0mm 0.0 W/m2
03:37 68.0 °F /  20 °C 61.5 °F /  16.4 °C 29.75in /  1007.3hPa Calm     80% 0.00in /  0mm 0.0 W/m2
03:43 68.0 °F /  20 °C 61.5 °F /  16.4 °C 29.75in /  1007.3hPa Calm     80% 0.00in /  0mm 0.0 W/m2
03:49 67.8 °F /  19.9 °C 61.3 °F /  16.3 °C 29.75in /  1007.3hPa Calm   1.0mph /  1.6km/h 80% 0.00in /  0mm 0.0 W/m2
03:55 67.8 °F /  19.9 °C 61.3 °F /  16.3 °C 29.75in /  1007.3hPa Calm     80% 0.00in /  0mm 0.0 W/m2
04:01 67.8 °F /  19.9 °C 61.7 °F /  16.5 °C 29.75in /  1007.3hPa Calm     81% 0.00in /  0mm 0.0 W/m2
04:07 67.8 °F /  19.9 °C 61.7 °F /  16.5 °C 29.75in /  1007.3hPa Calm   1.0mph /  1.6km/h 81% 0.00in /  0mm 0.0 W/m2
04:13 67.6 °F /  19.8 °C 61.5 °F /  16.4 °C 29.75in /  1007.3hPa East 0.9mph /  1.4km/h 1.0mph /  1.6km/h 81% 0.00in /  0mm 0.0 W/m2
04:19 67.6 °F /  19.8 °C 61.5 °F /  16.4 °C 29.75in /  1007.3hPa Calm   1.0mph /  1.6km/h 81% 0.00in /  0mm 0.0 W/m2
04:26 67.6 °F /  19.8 °C 61.5 °F /  16.4 °C 29.75in /  1007.3hPa Calm     81% 0.00in /  0mm 0.0 W/m2
04:32 67.6 °F /  19.8 °C 61.5 °F /  16.4 °C 29.75in /  1007.3hPa Calm     81% 0.00in /  0mm 0.0 W/m2
04:38 67.5 °F /  19.7 °C 61.3 °F /  16.3 °C 29.75in /  1007.3hPa Calm   1.0mph /  1.6km/h 81% 0.00in /  0mm 0.0 W/m2
04:44 67.5 °F /  19.7 °C 61.3 °F /  16.3 °C 29.75in /  1007.3hPa Calm   1.0mph /  1.6km/h 81% 0.00in /  0mm 0.0 W/m2
04:50 67.5 °F /  19.7 °C 61.3 °F /  16.3 °C 29.75in /  1007.3hPa Calm     81% 0.00in /  0mm 0.0 W/m2
04:56 67.5 °F /  19.7 °C 61.3 °F /  16.3 °C 29.75in /  1007.3hPa Calm     81% 0.00in /  0mm 0.0 W/m2
05:02 67.5 °F /  19.7 °C 61.3 °F /  16.3 °C 29.75in /  1007.3hPa Calm     81% 0.00in /  0mm 0.0 W/m2
05:09 67.5 °F /  19.7 °C 61.7 °F /  16.5 °C 29.75in /  1007.3hPa Calm     82% 0.00in /  0mm 0.0 W/m2
05:15 67.3 °F /  19.6 °C 61.5 °F /  16.4 °C 29.75in /  1007.3hPa Calm     82% 0.00in /  0mm 0.0 W/m2
05:21 67.1 °F /  19.5 °C 61.3 °F /  16.3 °C 29.75in /  1007.3hPa Calm   1.0mph /  1.6km/h 82% 0.00in /  0mm 0.0 W/m2
05:27 66.9 °F /  19.4 °C 61.2 °F /  16.2 °C 29.75in /  1007.3hPa Calm   1.0mph /  1.6km/h 82% 0.00in /  0mm 0.0 W/m2
05:33 66.7 °F /  19.3 °C 61.3 °F /  16.3 °C 29.75in /  1007.3hPa Calm   2.0mph /  3.2km/h 83% 0.00in /  0mm 0.0 W/m2
05:39 66.7 °F /  19.3 °C 61.3 °F /  16.3 °C 29.75in /  1007.3hPa Calm   3.0mph /  4.8km/h 83% 0.00in /  0mm 0.0 W/m2
05:46 66.6 °F /  19.2 °C 61.2 °F /  16.2 °C 29.75in /  1007.3hPa Calm   2.0mph /  3.2km/h 83% 0.00in /  0mm 0.0 W/m2
05:52 66.6 °F /  19.2 °C 61.2 °F /  16.2 °C 29.75in /  1007.3hPa Calm     83% 0.00in /  0mm 0.0 W/m2
05:58 66.4 °F /  19.1 °C 61.0 °F /  16.1 °C 29.75in /  1007.3hPa Calm     83% 0.00in /  0mm 0.0 W/m2
06:04 66.4 °F /  19.1 °C 61.0 °F /  16.1 °C 29.75in /  1007.3hPa Calm     83% 0.00in /  0mm 0.0 W/m2
06:10 66.4 °F /  19.1 °C 61.3 °F /  16.3 °C 29.75in /  1007.3hPa Calm     84% 0.00in /  0mm 0.0 W/m2
06:16 66.4 °F /  19.1 °C 61.3 °F /  16.3 °C 29.75in /  1007.3hPa Calm   1.0mph /  1.6km/h 84% 0.00in /  0mm 0.0 W/m2
06:22 66.2 °F /  19 °C 61.2 °F /  16.2 °C 29.76in /  1007.7hPa Calm   3.0mph /  4.8km/h 84% 0.00in /  0mm 0.0 W/m2
06:29 66.2 °F /  19 °C 61.2 °F /  16.2 °C 29.76in /  1007.7hPa ESE 0.9mph /  1.4km/h 2.0mph /  3.2km/h 84% 0.00in /  0mm 0.0 W/m2
06:35 66.4 °F /  19.1 °C 61.3 °F /  16.3 °C 29.76in /  1007.7hPa ESE 2.9mph /  4.7km/h 5.0mph /  8km/h 84% 0.00in /  0mm 0.0 W/m2
06:41 66.4 °F /  19.1 °C 61.3 °F /  16.3 °C 29.77in /  1008hPa Calm   2.0mph /  3.2km/h 84% 0.00in /  0mm 0.0 W/m2
06:47 66.4 °F /  19.1 °C 61.3 °F /  16.3 °C 29.77in /  1008hPa Calm   3.0mph /  4.8km/h 84% 0.00in /  0mm 0.0 W/m2
06:53 66.4 °F /  19.1 °C 61.3 °F /  16.3 °C 29.77in /  1008hPa Calm   1.0mph /  1.6km/h 84% 0.00in /  0mm 5.0 W/m2
06:59 66.4 °F /  19.1 °C 61.3 °F /  16.3 °C 29.77in /  1008hPa East 0.9mph /  1.4km/h 3.0mph /  4.8km/h 84% 0.00in /  0mm 7.0 W/m2
07:05 66.4 °F /  19.1 °C 61.3 °F /  16.3 °C 29.78in /  1008.4hPa Calm   3.0mph /  4.8km/h 84% 0.00in /  0mm 9.0 W/m2
07:11 66.4 °F /  19.1 °C 61.7 °F /  16.5 °C 29.78in /  1008.4hPa East 0.9mph /  1.4km/h 4.0mph /  6.4km/h 85% 0.00in /  0mm 12.0 W/m2
07:18 66.2 °F /  19 °C 61.5 °F /  16.4 °C 29.78in /  1008.4hPa East 0.9mph /  1.4km/h 5.0mph /  8km/h 85% 0.00in /  0mm 14.0 W/m2
07:24 66.0 °F /  18.9 °C 61.3 °F /  16.3 °C 29.78in /  1008.4hPa ENE 2.9mph /  4.7km/h 4.0mph /  6.4km/h 85% 0.00in /  0mm 18.0 W/m2
07:30 66.0 °F /  18.9 °C 61.7 °F /  16.5 °C 29.78in /  1008.4hPa Calm   4.0mph /  6.4km/h 86% 0.00in /  0mm 26.0 W/m2
07:36 66.0 °F /  18.9 °C 61.7 °F /  16.5 °C 29.78in /  1008.4hPa Calm   6.0mph /  9.7km/h 86% 0.00in /  0mm 40.0 W/m2
07:42 66.0 °F /  18.9 °C 61.7 °F /  16.5 °C 29.78in /  1008.4hPa Calm   4.0mph /  6.4km/h 86% 0.00in /  0mm 54.0 W/m2
07:48 66.2 °F /  19 °C 61.9 °F /  16.6 °C 29.78in /  1008.4hPa ESE 2.0mph /  3.2km/h 11.0mph /  17.7km/h 86% 0.00in /  0mm 60.0 W/m2
07:54 66.4 °F /  19.1 °C 62.1 °F /  16.7 °C 29.79in /  1008.7hPa ESE 2.0mph /  3.2km/h 5.0mph /  8km/h 86% 0.00in /  0mm 74.0 W/m2
08:00 66.7 °F /  19.3 °C 62.1 °F /  16.7 °C 29.79in /  1008.7hPa NE 0.9mph /  1.4km/h 7.0mph /  11.3km/h 85% 0.00in /  0mm 76.0 W/m2
08:07 66.9 °F /  19.4 °C 62.2 °F /  16.8 °C 29.80in /  1009hPa NNW 0.9mph /  1.4km/h 3.0mph /  4.8km/h 85% 0.00in /  0mm 84.0 W/m2
08:19 67.5 °F /  19.7 °C 62.4 °F /  16.9 °C 29.80in /  1009hPa SE 4.9mph /  7.9km/h 5.0mph /  8km/h 84% 0.00in /  0mm 102.0 W/m2
08:25 67.6 °F /  19.8 °C 62.2 °F /  16.8 °C 29.80in /  1009hPa Calm   4.0mph /  6.4km/h 83% 0.00in /  0mm 127.0 W/m2
08:31 68.2 °F /  20.1 °C 62.4 °F /  16.9 °C 29.80in /  1009hPa ENE 2.0mph /  3.2km/h 5.0mph /  8km/h 82% 0.00in /  0mm 95.0 W/m2
08:37 68.5 °F /  20.3 °C 62.4 °F /  16.9 °C 29.80in /  1009hPa ENE 6.0mph /  9.7km/h 6.0mph /  9.7km/h 81% 0.00in /  0mm 104.0 W/m2
08:43 68.9 °F /  20.5 °C 62.8 °F /  17.1 °C 29.80in /  1009hPa Calm   6.0mph /  9.7km/h 81% 0.00in /  0mm 134.0 W/m2
08:50 69.3 °F /  20.7 °C 62.4 °F /  16.9 °C 29.80in /  1009hPa NE 4.9mph /  7.9km/h 9.0mph /  14.5km/h 79% 0.00in /  0mm 155.0 W/m2
08:56 69.6 °F /  20.9 °C 62.1 °F /  16.7 °C 29.80in /  1009hPa ENE 4.0mph /  6.4km/h 7.0mph /  11.3km/h 77% 0.00in /  0mm 123.0 W/m2
09:02 70.2 °F /  21.2 °C 62.2 °F /  16.8 °C 29.80in /  1009hPa NE 2.0mph /  3.2km/h 6.0mph /  9.7km/h 76% 0.00in /  0mm 162.0 W/m2
09:08 70.3 °F /  21.3 °C 62.1 °F /  16.7 °C 29.80in /  1009hPa NE 4.0mph /  6.4km/h 9.0mph /  14.5km/h 75% 0.00in /  0mm 206.0 W/m2
09:14 70.5 °F /  21.4 °C 61.5 °F /  16.4 °C 29.80in /  1009hPa NNE 4.0mph /  6.4km/h 9.0mph /  14.5km/h 73% 0.00in /  0mm 134.0 W/m2
09:20 70.7 °F /  21.5 °C 61.2 °F /  16.2 °C 29.80in /  1009hPa East 0.9mph /  1.4km/h 7.0mph /  11.3km/h 72% 0.00in /  0mm 97.0 W/m2
09:26 71.1 °F /  21.7 °C 61.5 °F /  16.4 °C 29.80in /  1009hPa ENE 8.9mph /  14.3km/h 9.0mph /  14.5km/h 72% 0.00in /  0mm 636.0 W/m2
09:32 72.0 °F /  22.2 °C 62.1 °F /  16.7 °C 29.80in /  1009hPa NNE 2.9mph /  4.7km/h 7.0mph /  11.3km/h 71% 0.00in /  0mm 696.0 W/m2
09:39 73.0 °F /  22.8 °C 62.6 °F /  17 °C 29.80in /  1009hPa East 4.0mph /  6.4km/h 12.0mph /  19.3km/h 70% 0.00in /  0mm 733.0 W/m2
20:22 62.4 °F /  16.9 °C 58.8 °F /  14.9 °C 29.75in /  1007.3hPa SSE 10.1mph /  16.3km/h 13.0mph /  20.9km/h 88% 0.07in /  1.78mm 0.0 W/m2
20:28 61.3 °F /  16.3 °C 58.1 °F /  14.5 °C 29.75in /  1007.3hPa Calm   3.0mph /  4.8km/h 89% 0.24in /  6.1mm 0.0 W/m2
20:34 61.2 °F /  16.2 °C 58.5 °F /  14.7 °C 29.77in /  1008hPa Calm   1.0mph /  1.6km/h 91% 0.31in /  7.87mm 0.0 W/m2
20:40 60.8 °F /  16 °C 58.1 °F /  14.5 °C 29.77in /  1008hPa Calm   2.0mph /  3.2km/h 91% 0.36in /  9.14mm 0.0 W/m2
20:47 61.0 °F /  16.1 °C 59.0 °F /  15 °C 29.77in /  1008hPa Calm   1.0mph /  1.6km/h 93% 0.43in /  10.92mm 0.0 W/m2
20:53 61.2 °F /  16.2 °C 59.2 °F /  15.1 °C 29.78in /  1008.4hPa Calm   1.0mph /  1.6km/h 93% 0.46in /  11.68mm 0.0 W/m2
20:59 61.2 °F /  16.2 °C 59.2 °F /  15.1 °C 29.78in /  1008.4hPa Calm   1.0mph /  1.6km/h 93% 0.48in /  12.19mm 0.0 W/m2
21:05 61.3 °F /  16.3 °C 59.4 °F /  15.2 °C 29.80in /  1009hPa Calm   1.0mph /  1.6km/h 93% 0.54in /  13.72mm 0.0 W/m2
21:11 61.3 °F /  16.3 °C 59.5 °F /  15.3 °C 29.79in /  1008.7hPa Calm   1.0mph /  1.6km/h 94% 0.68in /  17.27mm 0.0 W/m2
21:18 61.3 °F /  16.3 °C 59.5 °F /  15.3 °C 29.80in /  1009hPa Calm   1.0mph /  1.6km/h 94% 0.81in /  20.57mm 0.0 W/m2
21:24 61.3 °F /  16.3 °C 59.5 °F /  15.3 °C 29.78in /  1008.4hPa SW 0.9mph /  1.4km/h 5.0mph /  8km/h 94% 0.78in /  19.81mm 0.0 W/m2
21:30 61.2 °F /  16.2 °C 59.4 °F /  15.2 °C 29.78in /  1008.4hPa Calm   1.0mph /  1.6km/h 94% 0.69in /  17.53mm 0.0 W/m2
21:36 61.2 °F /  16.2 °C 59.4 °F /  15.2 °C 29.78in /  1008.4hPa SW 2.0mph /  3.2km/h 3.0mph /  4.8km/h 94% 0.65in /  16.51mm 0.0 W/m2
21:42 61.2 °F /  16.2 °C 59.4 °F /  15.2 °C 29.78in /  1008.4hPa Calm   4.0mph /  6.4km/h 94% 0.58in /  14.73mm 0.0 W/m2
21:48 61.2 °F /  16.2 °C 59.4 °F /  15.2 °C 29.80in /  1009hPa Calm   2.0mph /  3.2km/h 94% 0.54in /  13.72mm 0.0 W/m2
21:54 61.0 °F /  16.1 °C 59.2 °F /  15.1 °C 29.79in /  1008.7hPa SSE 4.0mph /  6.4km/h 4.0mph /  6.4km/h 94% 0.53in /  13.46mm 0.0 W/m2
22:00 61.0 °F /  16.1 °C 59.2 °F /  15.1 °C 29.79in /  1008.7hPa SE 2.9mph /  4.7km/h 4.0mph /  6.4km/h 94% 0.53in /  13.46mm 0.0 W/m2
22:06 61.0 °F /  16.1 °C 59.2 °F /  15.1 °C 29.79in /  1008.7hPa SSE 0.9mph /  1.4km/h 3.0mph /  4.8km/h 94% 0.49in /  12.45mm 0.0 W/m2
22:13 61.2 °F /  16.2 °C 59.4 °F /  15.2 °C 29.79in /  1008.7hPa Calm   2.0mph /  3.2km/h 94% 0.31in /  7.87mm 0.0 W/m2
22:19 61.3 °F /  16.3 °C 59.9 °F /  15.5 °C 29.79in /  1008.7hPa Calm   3.0mph /  4.8km/h 95% 0.20in /  5.08mm 0.0 W/m2
22:25 61.3 °F /  16.3 °C 59.9 °F /  15.5 °C 29.79in /  1008.7hPa Calm   1.0mph /  1.6km/h 95% 0.10in /  2.54mm 0.0 W/m2
22:31 61.3 °F /  16.3 °C 59.9 °F /  15.5 °C 29.79in /  1008.7hPa Calm   2.0mph /  3.2km/h 95% 0.11in /  2.79mm 0.0 W/m2
22:37 61.3 °F /  16.3 °C 59.9 °F /  15.5 °C 29.80in /  1009hPa Calm   1.0mph /  1.6km/h 95% 0.12in /  3.05mm 0.0 W/m2
22:43 61.3 °F /  16.3 °C 59.9 °F /  15.5 °C 29.80in /  1009hPa Calm   1.0mph /  1.6km/h 95% 0.13in /  3.3mm 0.0 W/m2
22:49 61.5 °F /  16.4 °C 60.1 °F /  15.6 °C 29.80in /  1009hPa Calm   2.0mph /  3.2km/h 95% 0.13in /  3.3mm 0.0 W/m2
22:55 61.9 °F /  16.6 °C 60.4 °F /  15.8 °C 29.80in /  1009hPa Calm   2.0mph /  3.2km/h 95% 0.13in /  3.3mm 0.0 W/m2
23:01 61.9 °F /  16.6 °C 60.4 °F /  15.8 °C 29.79in /  1008.7hPa SE 2.9mph /  4.7km/h 7.0mph /  11.3km/h 95% 0.13in /  3.3mm 0.0 W/m2
23:07 62.1 °F /  16.7 °C 60.6 °F /  15.9 °C 29.79in /  1008.7hPa SSW 4.0mph /  6.4km/h 7.0mph /  11.3km/h 95% 0.16in /  4.06mm 0.0 W/m2
23:13 62.1 °F /  16.7 °C 60.6 °F /  15.9 °C 29.79in /  1008.7hPa SSW 2.9mph /  4.7km/h 12.0mph /  19.3km/h 95% 0.16in /  4.06mm 0.0 W/m2
23:19 61.9 °F /  16.6 °C 60.4 °F /  15.8 °C 29.78in /  1008.4hPa South 6.0mph /  9.7km/h 12.0mph /  19.3km/h 95% 0.17in /  4.32mm 0.0 W/m2
23:25 61.9 °F /  16.6 °C 60.1 °F /  15.6 °C 29.78in /  1008.4hPa SSE 6.9mph /  11.1km/h 8.0mph /  12.9km/h 94% 0.16in /  4.06mm 0.0 W/m2
23:31 61.7 °F /  16.5 °C 59.9 °F /  15.5 °C 29.78in /  1008.4hPa SE 0.9mph /  1.4km/h 11.0mph /  17.7km/h 94% 0.14in /  3.56mm 0.0 W/m2
23:37 61.5 °F /  16.4 °C 59.7 °F /  15.4 °C 29.78in /  1008.4hPa SE 2.0mph /  3.2km/h 11.0mph /  17.7km/h 94% 0.13in /  3.3mm 0.0 W/m2
23:44 61.5 °F /  16.4 °C 59.7 °F /  15.4 °C 29.78in /  1008.4hPa SE 4.9mph /  7.9km/h 9.0mph /  14.5km/h 94% 0.12in /  3.05mm 0.0 W/m2
23:50 61.5 °F /  16.4 °C 59.7 °F /  15.4 °C 29.79in /  1008.7hPa ENE 2.9mph /  4.7km/h 7.0mph /  11.3km/h 94% 0.12in /  3.05mm 0.0 W/m2
23:56 61.5 °F /  16.4 °C 59.7 °F /  15.4 °C 29.81in /  1009.4hPa North 6.9mph /  11.1km/h 7.0mph /  11.3km/h 94% 0.13in /  3.3mm 0.0 W/m2
Olympia, Windhoek, Namibia
Compliments of Weather Underground - 2.5 mb